Time;durP1;ratioP1;P1;durP2;ratioP2;P2;SDS_P1;SDS_P2;PMS_P1;PMS_P2;Temp;Humidity;BMP_temperature;BMP_pressure;BME280_temperature;BME280_humidity;BME280_pressure;Samples;Min_cycle;Max_cycle;Signal;HPM_P1;HPM_P2
2023/10/09 00:03:08;;;;;;;1.73;1.10;;;21.90;68.10;;;22.77;49.48;101922.91;3078757;46;20469;-82
2023/10/09 00:05:46;;;;;;;2.07;1.10;;;21.90;68.20;;;22.76;49.79;101942.75;3079179;46;20497;-82
2023/10/09 00:08:19;;;;;;;1.27;1.17;;;21.80;68.10;;;22.74;49.87;101974.41;3078473;46;21063;-82
2023/10/09 00:10:54;;;;;;;2.47;1.40;;;21.90;68.30;;;22.74;49.31;101985.13;3078122;46;20439;-82
2023/10/09 00:13:30;;;;;;;1.40;1.23;;;21.90;68.30;;;22.73;49.89;101959.31;3078270;46;20456;-82
2023/10/09 00:16:14;;;;;;;2.97;1.17;;;21.80;68.30;;;22.72;49.73;101963.06;3079849;46;20438;-81
2023/10/09 00:18:46;;;;;;;1.77;1.37;;;21.80;68.30;;;22.74;49.82;101954.78;3080970;46;20511;-81
2023/10/09 00:21:22;;;;;;;1.50;1.10;;;21.80;68.30;;;22.72;49.87;101936.22;3080870;46;21135;-81
2023/10/09 00:23:59;;;;;;;1.63;1.13;;;21.80;68.30;;;22.72;49.67;101933.53;3080884;46;20497;-81
2023/10/09 00:26:31;;;;;;;1.47;1.30;;;21.80;68.30;;;22.72;49.69;101919.28;3081207;46;21192;-82
2023/10/09 00:28:59;;;;;;;1.50;1.27;;;21.80;68.30;;;22.72;49.58;101903.16;3080977;46;20477;-82
2023/10/09 00:31:33;;;;;;;1.20;1.10;;;21.90;68.40;;;22.71;49.88;101880.88;3081362;46;20443;-81
2023/10/09 00:34:05;;;;;;;2.20;1.10;;;21.80;68.30;;;22.70;49.84;101889.16;3081018;46;20453;-82
2023/10/09 00:36:42;;;;;;;2.03;1.20;;;21.80;68.40;;;22.70;49.48;101873.03;3081246;46;20506;-82
2023/10/09 00:39:19;;;;;;;1.93;1.13;;;21.80;68.40;;;22.71;49.50;101863.94;3080081;46;20521;-82
2023/10/09 00:41:48;;;;;;;1.30;1.20;;;21.90;68.40;;;22.69;49.75;101877.59;3080894;46;20531;-81
2023/10/09 00:44:16;;;;;;;1.00;0.97;;;21.90;68.40;;;22.69;49.66;101888.31;3081228;46;20451;-82
2023/10/09 00:46:47;;;;;;;1.50;1.17;;;21.80;68.40;;;22.69;49.71;101880.28;3081100;46;20430;-82
2023/10/09 00:49:16;;;;;;;0.80;0.80;;;21.80;68.50;;;22.68;49.87;101870.56;3080802;46;20460;-81
2023/10/09 00:51:56;;;;;;;1.37;1.17;;;21.80;68.40;;;22.67;49.85;101855.53;3079978;46;20467;-82
2023/10/09 00:54:28;;;;;;;1.57;1.13;;;21.80;68.50;;;22.69;49.79;101855.28;3080958;46;20539;-81
2023/10/09 00:57:04;;;;;;;1.10;1.00;;;21.80;68.50;;;22.68;49.83;101875.94;3081373;46;20575;-82
2023/10/09 00:59:38;;;;;;;1.60;1.30;;;21.80;68.50;;;22.69;49.91;101860.66;3080018;46;20495;-81
2023/10/09 01:02:07;;;;;;;1.30;1.10;;;21.80;68.50;;;22.67;49.62;101850.16;3079972;46;20573;-82
2023/10/09 01:04:43;;;;;;;1.40;1.30;;;21.80;68.40;;;22.67;49.69;101858.22;3080800;46;20427;-82
2023/10/09 01:07:25;;;;;;;1.47;1.30;;;21.80;68.50;;;22.67;49.65;101852.84;3080897;46;20519;-82
2023/10/09 01:09:55;;;;;;;1.00;0.90;;;21.80;68.50;;;22.67;49.97;101846.66;3080821;46;20435;-82
2023/10/09 01:12:23;;;;;;;1.53;1.17;;;21.80;68.50;;;22.66;49.79;101835.09;3079953;46;20423;-82
2023/10/09 01:14:55;;;;;;;1.10;1.00;;;21.80;68.50;;;22.66;49.81;101810.91;3080427;46;20498;-82
2023/10/09 01:17:35;;;;;;;1.30;1.20;;;21.80;68.50;;;22.66;49.68;101802.03;3080874;46;20556;-82
2023/10/09 01:20:14;;;;;;;1.23;1.13;;;21.80;68.50;;;22.65;50.15;101785.13;3080826;46;20564;-82
2023/10/09 01:22:43;;;;;;;1.50;1.40;;;21.80;68.50;;;22.64;50.06;101783.47;3081023;46;20530;-82
2023/10/09 01:25:12;;;;;;;1.47;1.03;;;21.80;68.50;;;22.65;49.73;101781.63;3080687;46;20431;-82
2023/10/09 01:27:40;;;;;;;1.00;1.00;;;21.80;68.50;;;22.64;49.56;101759.31;3080259;46;20431;-82
2023/10/09 01:30:14;;;;;;;1.47;1.10;;;21.80;68.50;;;22.65;49.65;101726.06;3080573;46;20439;-82
2023/10/09 01:32:46;;;;;;;1.43;1.30;;;21.80;68.50;;;22.64;49.73;101705.63;3080754;46;21076;-82
2023/10/09 01:35:21;;;;;;;1.73;0.93;;;21.80;68.50;;;22.63;50.04;101725.47;3080793;46;20427;-82
2023/10/09 01:37:51;;;;;;;1.07;0.90;;;21.80;68.50;;;22.63;49.67;101743.47;3080699;46;20440;-82
2023/10/09 01:40:28;;;;;;;1.53;0.87;;;21.80;68.50;;;22.63;50.00;101728.16;3080070;46;20511;-82
2023/10/09 01:42:56;;;;;;;1.10;1.00;;;21.80;68.50;;;22.62;50.02;101731.06;3080699;46;20427;-81
2023/10/09 01:47:54;;;;;;;1.23;1.13;;;21.80;68.50;;;22.62;50.08;101739.94;3080589;46;20427;-81
2023/10/09 01:50:42;;;;;;;1.10;1.00;;;21.80;68.50;;;22.61;49.66;101735.63;3079902;46;20539;-81
2023/10/09 01:53:17;;;;;;;0.90;0.90;;;21.80;68.50;;;22.62;49.93;101731.06;3079631;46;20494;-82
2023/10/09 01:55:49;;;;;;;1.30;1.20;;;21.80;68.50;;;22.60;49.92;101723.22;3080516;46;20431;-81
2023/10/09 02:00:54;;;;;;;1.00;0.90;;;21.80;68.50;;;22.60;49.90;101712.50;3080376;46;20519;-82
2023/10/09 02:03:23;;;;;;;1.30;0.93;;;21.80;68.50;;;22.59;50.01;101716.22;3079784;46;21099;-82
2023/10/09 02:05:53;;;;;;;1.50;1.10;;;21.80;68.50;;;22.60;49.90;101712.50;3080371;46;20560;-82
2023/10/09 02:08:26;;;;;;;1.13;1.00;;;21.70;68.40;;;22.59;50.13;101702.78;3079918;46;20464;-82
2023/10/09 02:10:56;;;;;;;1.20;1.10;;;21.80;68.50;;;22.59;50.22;101697.41;3079238;46;20459;-82
2023/10/09 02:13:31;;;;;;;1.43;1.20;;;21.80;68.50;;;22.60;49.83;101684.81;3080267;46;20568;-81
2023/10/09 02:16:14;;;;;;;1.63;1.00;;;21.70;68.40;;;22.59;49.68;101673.25;3080312;46;20451;-82
2023/10/09 02:21:33;;;;;;;1.40;1.00;;;21.70;68.40;;;22.57;49.74;101659.25;3078944;46;20431;-82
2023/10/09 02:24:08;;;;;;;1.07;1.00;;;21.70;68.40;;;22.57;50.05;101653.91;3079650;46;20427;-82
2023/10/09 02:31:51;;;;;;;1.23;1.00;;;21.70;68.40;;;22.58;50.05;101619.81;3079754;46;20478;-82
2023/10/09 02:34:24;;;;;;;1.23;1.00;;;21.70;68.40;;;22.57;49.66;101616.31;3080393;46;20472;-81
2023/10/09 02:37:05;;;;;;;0.77;0.77;;;21.80;68.50;;;22.57;49.89;101610.94;3080312;46;20431;-82
2023/10/09 02:39:43;;;;;;;1.03;0.93;;;21.70;68.40;;;22.57;49.99;101605.56;3077957;46;20663;-82
2023/10/09 02:44:51;;;;;;;1.00;1.00;;;21.70;68.40;;;22.56;49.96;101603.13;3079881;46;20459;-82
2023/10/09 02:47:24;;;;;;;1.63;1.20;;;21.70;68.40;;;22.57;49.94;101604.75;3079388;46;20423;-82
2023/10/09 02:50:00;;;;;;;1.10;1.00;;;21.80;68.60;;;22.56;49.75;101609.31;3079036;46;20442;-81
2023/10/09 02:52:34;;;;;;;1.37;1.17;;;21.70;68.50;;;22.56;49.94;101611.97;3079274;46;20511;-82
2023/10/09 02:55:12;;;;;;;1.27;1.03;;;21.70;68.40;;;22.55;49.96;101602.31;3078682;46;20427;-81
2023/10/09 02:57:42;;;;;;;1.10;1.00;;;21.70;68.40;;;22.54;50.05;101616.78;3079789;46;20452;-82
2023/10/09 03:00:18;;;;;;;1.90;0.90;;;21.70;68.40;;;22.54;49.87;101632.88;3078477;46;20613;-82
2023/10/09 03:02:49;;;;;;;1.30;1.20;;;21.70;68.50;;;22.54;50.08;101627.50;3078734;46;20443;-82
2023/10/09 03:05:20;;;;;;;1.13;1.00;;;21.70;68.40;;;22.55;50.00;101634.53;3079762;46;20452;-82
2023/10/09 03:07:50;;;;;;;1.10;1.00;;;21.70;68.50;;;22.54;49.91;101626.69;3079071;46;20519;-82
2023/10/09 03:10:18;;;;;;;1.17;0.93;;;21.70;68.40;;;22.54;49.87;101632.88;3079396;46;20464;-82
2023/10/09 03:12:51;;;;;;;1.20;1.10;;;21.70;68.40;;;22.54;50.17;101637.41;3078861;46;20431;-82
2023/10/09 03:15:20;;;;;;;1.83;1.10;;;21.70;68.40;;;22.54;49.98;101630.19;3078557;46;20451;-82
2023/10/09 03:17:49;;;;;;;0.97;0.90;;;21.70;68.40;;;22.54;50.22;101632.88;3079281;46;20422;-82
2023/10/09 03:20:18;;;;;;;1.40;1.00;;;21.70;68.40;;;22.54;50.10;101627.50;3079047;46;20460;-81
2023/10/09 03:22:48;;;;;;;1.10;0.90;;;21.70;68.40;;;22.54;50.01;101621.31;3078653;46;20427;-82
2023/10/09 03:25:16;;;;;;;1.80;0.93;;;21.70;68.40;;;22.54;50.18;101608.72;3079671;46;20424;-81
2023/10/09 03:27:47;;;;;;;1.10;0.90;;;21.70;68.40;;;22.54;49.86;101595.31;3078991;46;20554;-82
2023/10/09 03:30:23;;;;;;;1.70;1.00;;;21.70;68.40;;;22.55;49.95;101596.13;3079324;46;20438;-82
2023/10/09 03:32:53;;;;;;;1.20;1.10;;;21.70;68.40;;;22.54;49.81;101594.47;3078551;46;21527;-82
2023/10/09 03:35:27;;;;;;;1.53;1.43;;;21.70;68.50;;;22.55;50.00;101590.75;3078720;46;20597;-82
2023/10/09 03:38:06;;;;;;;1.33;1.17;;;21.70;68.40;;;22.54;49.66;101600.66;3079424;46;20481;-82
2023/10/09 03:40:35;;;;;;;1.00;0.87;;;21.70;68.40;;;22.53;49.79;101599.06;3078432;46;20439;-82
2023/10/09 03:43:04;;;;;;;1.40;1.00;;;21.70;68.40;;;22.53;50.10;101601.72;3079345;46;20427;-82
2023/10/09 03:45:35;;;;;;;0.97;0.83;;;21.70;68.40;;;22.53;49.91;101599.06;3079044;46;20557;-82
2023/10/09 03:48:21;;;;;;;1.20;1.00;;;21.70;68.40;;;22.53;50.03;101585.63;3079450;46;20516;-84
2023/10/09 03:51:06;;;;;;;0.83;0.83;;;21.70;68.40;;;22.52;49.89;101592.03;3080285;46;20463;-82
2023/10/09 03:53:39;;;;;;;0.93;0.93;;;21.70;68.40;;;22.51;49.94;101595.75;3081744;46;20427;-82
2023/10/09 03:56:11;;;;;;;1.20;0.87;;;21.70;68.40;;;22.52;49.98;101607.31;3080910;46;20426;-82
2023/10/09 03:58:45;;;;;;;1.27;1.10;;;21.70;68.40;;;22.51;50.25;101606.50;3081723;46;20423;-82
2023/10/09 04:01:29;;;;;;;1.23;1.07;;;21.70;68.50;;;22.51;50.17;101605.69;3080585;46;20548;-82
2023/10/09 04:04:00;;;;;;;1.10;1.00;;;21.70;68.40;;;22.52;49.89;101596.56;3080868;46;20505;-82
2023/10/09 04:06:34;;;;;;;1.10;0.93;;;21.70;68.40;;;22.51;49.81;101603.81;3080388;46;20481;-82
2023/10/09 04:12:24;;;;;;;1.20;1.10;;;21.70;68.40;;;22.50;50.06;101585.25;3080311;46;20455;-82
2023/10/09 04:14:54;;;;;;;1.10;1.00;;;21.70;68.80;;;22.49;49.75;101572.91;3080601;46;20438;-82
2023/10/09 04:17:33;;;;;;;0.93;0.87;;;21.70;68.40;;;22.49;50.12;101581.75;3081672;46;20544;-82
2023/10/09 04:22:51;;;;;;;0.97;0.90;;;21.70;68.50;;;22.49;49.96;101592.50;3081285;46;20456;-82
2023/10/09 04:25:25;;;;;;;1.40;1.00;;;21.70;68.50;;;22.49;49.81;101579.06;3081650;46;20455;-82
2023/10/09 04:30:42;;;;;;;1.20;1.10;;;21.70;68.50;;;22.49;49.98;101570.22;3080256;46;20435;-82
2023/10/09 04:33:34;;;;;;;1.30;0.90;;;21.70;68.40;;;22.49;50.09;101576.38;3080835;46;21101;-82
2023/10/09 04:39:15;;;;;;;2.30;1.03;;;21.60;68.40;;;22.48;50.11;101598.94;3081355;46;20423;-82
2023/10/09 04:44:35;;;;;;;1.33;1.10;;;21.70;68.40;;;22.48;49.93;101590.88;3080911;46;20443;-82
2023/10/09 05:03:12;;;;;;;1.17;1.07;;;21.60;68.40;;;22.46;50.04;101571.50;3079345;46;20448;-81
2023/10/09 05:08:20;;;;;;;1.17;1.10;;;21.60;68.40;;;22.46;49.98;101570.69;3080756;46;20507;-81
2023/10/09 05:16:26;;;;;;;1.20;1.10;;;21.60;68.40;;;22.44;50.07;101565.53;3080606;46;20427;-82
2023/10/09 05:18:56;;;;;;;1.40;1.10;;;21.60;68.50;;;22.45;50.33;101551.06;3080663;46;20479;-81
2023/10/09 05:29:19;;;;;;;1.30;1.20;;;21.60;68.50;;;22.45;50.17;101553.75;3079806;46;20998;-81
2023/10/09 05:34:34;;;;;;;1.60;1.10;;;21.60;68.50;;;22.44;49.81;101543.28;3080543;46;20452;-82
2023/10/09 05:37:24;;;;;;;2.30;1.07;;;21.60;68.50;;;22.44;49.98;101544.06;3080626;46;21000;-81
2023/10/09 05:40:22;;;;;;;0.90;0.90;;;21.60;68.50;;;22.44;49.99;101525.28;3079809;46;20459;-81
2023/10/09 05:42:57;;;;;;;2.10;1.20;;;21.60;68.50;;;22.43;50.07;101506.75;3080437;46;20423;-81
2023/10/09 05:46:07;;;;;;;1.20;1.10;;;21.60;68.50;;;22.43;50.13;101507.56;3079799;46;21042;-82
2023/10/09 06:04:33;;;;;;;1.10;1.10;;;21.60;68.60;;;22.41;50.01;101531.13;3080802;46;20508;-82
2023/10/09 06:07:11;;;;;;;2.30;1.37;;;21.60;68.60;;;22.42;50.08;101529.25;3079969;46;21031;-82
2023/10/09 06:09:56;;;;;;;1.30;1.13;;;21.60;68.60;;;22.42;50.34;101538.13;3080622;46;20439;-81
2023/10/09 06:12:34;;;;;;;1.33;1.20;;;21.60;68.70;;;22.43;50.14;101536.25;3080154;46;20435;-82
2023/10/09 06:15:32;;;;;;;2.73;1.10;;;21.60;68.60;;;22.42;50.30;101526.56;3079825;46;20427;-82
2023/10/09 06:18:25;;;;;;;1.30;1.20;;;21.60;68.70;;;22.40;50.52;101537.53;3080341;46;20573;-81
2023/10/09 06:21:09;;;;;;;1.90;1.00;;;21.60;68.70;;;22.40;50.03;101524.13;3080252;46;21018;-82
2023/10/09 06:24:01;;;;;;;1.37;1.23;;;21.60;68.70;;;22.40;50.23;101512.56;3080077;46;21107;-82
2023/10/09 06:26:26;;;;;;;1.83;1.30;;;21.60;68.60;;;22.41;50.11;101530.31;3079822;46;21201;-82
2023/10/09 06:31:57;;;;;;;1.23;1.13;;;21.60;68.70;;;22.40;50.24;101524.13;3080109;46;20560;-82
2023/10/09 06:34:32;;;;;;;2.27;1.60;;;21.60;68.80;;;22.40;50.44;101518.75;3079383;46;20480;-82
2023/10/09 06:37:17;;;;;;;2.93;1.30;;;21.60;68.80;;;22.41;50.34;101519.56;3080220;46;20455;-81
2023/10/09 06:42:33;;;;;;;3.17;1.30;;;21.60;68.90;;;22.42;50.58;101521.19;3078926;46;20503;-82
2023/10/09 06:47:55;;;;;;;2.73;1.57;;;21.60;69.80;;;22.42;50.62;101511.28;3079815;46;20439;-82
2023/10/09 06:50:24;;;;;;;2.10;1.53;;;21.60;69.10;;;22.42;50.48;101502.41;3079563;46;20443;-81
2023/10/09 06:55:48;;;;;;;4.10;1.77;;;21.60;69.40;;;22.44;51.01;101517.22;3080429;46;20427;-86
2023/10/09 06:58:25;;;;;;;3.03;1.60;;;21.60;70.20;;;22.47;51.41;101530.19;3080505;46;20427;-80
2023/10/09 07:03:34;;;;;;;5.13;1.90;;;21.60;70.50;;;22.49;51.46;101564.84;3079513;46;21144;-80
2023/10/09 07:06:15;;;;;;;6.73;1.93;;;21.60;70.40;;;22.50;51.23;101550.38;3078102;46;20498;-80
2023/10/09 07:08:59;;;;;;;5.03;2.13;;;21.70;70.60;;;22.51;51.50;101546.66;3079559;46;20545;-81
2023/10/09 07:12:32;;;;;;;3.70;1.63;;;21.70;70.50;;;22.50;51.36;101535.09;3079940;46;20480;-80
2023/10/09 07:17:21;;;;;;;5.37;2.33;;;21.70;70.40;;;22.50;51.53;101540.47;3079497;46;20525;-80
2023/10/09 07:22:29;;;;;;;2.07;1.87;;;21.70;70.40;;;22.49;51.52;101543.41;3079722;46;20423;-80
2023/10/09 07:24:58;;;;;;;7.03;2.47;;;21.70;70.40;;;22.50;51.52;101551.19;3078051;46;20495;-80
2023/10/09 07:27:45;;;;;;;5.00;2.10;;;21.70;70.40;;;22.51;51.38;101543.97;3078703;46;20447;-80
2023/10/09 07:35:47;;;;;;;3.67;2.07;;;21.70;70.50;;;22.49;51.59;101533.44;3078290;46;21140;-80
2023/10/09 07:38:23;;;;;;;3.13;2.10;;;21.70;70.60;;;22.48;51.51;101518.41;3078758;46;20555;-80
2023/10/09 07:46:51;;;;;;;3.70;1.60;;;21.70;70.60;;;22.50;51.36;101519.00;3078497;46;20573;-80
2023/10/09 07:49:26;;;;;;;2.80;1.70;;;21.70;70.60;;;22.49;51.33;101520.03;3078464;46;20454;-80
2023/10/09 07:51:55;;;;;;;3.20;1.73;;;21.70;70.60;;;22.50;51.28;101531.59;3079046;46;21123;-80
2023/10/09 07:54:31;;;;;;;3.83;2.23;;;21.70;70.60;;;22.51;51.78;101525.97;3078866;46;20426;-80
2023/10/09 07:57:15;;;;;;;2.73;1.90;;;21.70;70.60;;;22.50;51.63;101518.16;3079425;46;20561;-80
2023/10/09 08:00:01;;;;;;;3.33;2.10;;;21.70;70.70;;;22.50;51.60;101524.38;3078066;46;20435;-80
2023/10/09 08:02:32;;;;;;;2.73;1.80;;;21.70;70.70;;;22.49;51.64;101511.97;3078788;46;20587;-80
2023/10/09 08:05:33;;;;;;;3.83;2.00;;;21.70;70.70;;;22.50;51.49;101535.09;3078755;46;20427;-80
2023/10/09 08:13:56;;;;;;;3.93;1.90;;;21.70;70.80;;;22.49;51.65;101527.28;3078647;46;20423;-80
2023/10/09 08:16:36;;;;;;;4.73;2.03;;;21.70;70.70;;;22.49;51.48;101522.72;3079001;46;20455;-80
2023/10/09 08:22:42;;;;;;;3.17;1.70;;;21.70;70.70;;;22.49;51.65;101535.34;3077364;46;20541;-80
2023/10/09 08:25:07;;;;;;;2.97;1.80;;;21.70;70.70;;;22.49;51.73;101535.34;3078677;46;20496;-80
2023/10/09 08:33:02;;;;;;;3.47;1.97;;;21.70;70.70;;;22.48;51.48;101537.19;3079089;46;20423;-80
2023/10/09 08:35:47;;;;;;;2.60;1.87;;;21.70;70.70;;;22.48;51.36;101531.84;3078904;46;20557;-79
2023/10/09 08:38:24;;;;;;;3.10;2.00;;;21.70;70.60;;;22.48;51.62;101534.53;3079419;46;20431;-80
2023/10/09 08:40:58;;;;;;;3.47;1.77;;;21.70;70.70;;;22.51;51.77;101539.41;3080641;46;21050;-80
2023/10/09 08:43:30;;;;;;;2.63;2.20;;;21.70;70.90;;;22.54;51.86;101535.44;3080458;46;21117;-78
2023/10/09 08:46:01;;;;;;;3.67;2.17;;;21.70;71.20;;;22.58;51.88;101528.56;3080143;46;20426;-80
2023/10/09 08:48:30;;;;;;;2.20;1.80;;;21.70;71.40;;;22.62;51.86;101535.94;3081632;46;20528;-81
2023/10/09 08:51:06;;;;;;;3.30;2.10;;;21.80;71.60;;;22.67;51.83;101535.25;3079918;46;20504;-80
2023/10/09 08:53:35;;;;;;;4.37;2.27;;;21.80;71.70;;;22.73;51.98;101536.97;3080328;46;20500;-80
2023/10/09 08:56:04;;;;;;;4.50;2.87;;;21.80;72.50;;;22.80;51.87;101534.97;3079908;46;20423;-81
2023/10/09 08:58:36;;;;;;;3.03;2.63;;;21.90;71.70;;;22.85;51.81;101521.66;3080537;46;20435;-79
2023/10/09 09:01:05;;;;;;;2.80;2.47;;;21.90;71.70;;;22.89;51.81;101529.00;3079287;46;20497;-81
2023/10/09 09:03:45;;;;;;;2.73;2.40;;;22.00;71.80;;;22.95;51.82;101537.19;3080808;46;20458;-80
2023/10/09 09:06:14;;;;;;;4.73;2.50;;;22.00;71.60;;;23.00;51.75;101526.56;3080969;46;23048;-80
2023/10/09 09:08:44;;;;;;;3.80;2.87;;;22.10;71.50;;;23.03;51.59;101518.84;3081924;46;20460;-81
2023/10/09 09:11:22;;;;;;;3.33;2.57;;;22.10;72.00;;;23.06;51.43;101522.94;3080761;46;20458;-81
2023/10/09 09:13:58;;;;;;;2.73;2.03;;;22.20;71.10;;;23.08;51.59;101531.56;3078524;46;21073;-81
2023/10/09 09:16:29;;;;;;;4.20;2.57;;;22.20;70.90;;;23.13;51.36;101529.00;3080293;46;20519;-81
2023/10/09 09:21:47;;;;;;;4.40;2.60;;;22.30;70.80;;;23.18;51.12;101534.44;3083200;46;20573;-84
2023/10/09 09:26:59;;;;;;;7.63;2.70;;;22.30;71.10;;;23.28;51.32;101530.09;3079343;46;20490;-80
2023/10/09 09:29:37;;;;;;;7.40;3.23;;;22.40;71.10;;;23.33;51.44;101524.00;3075566;46;20484;-79
2023/10/09 09:32:18;;;;;;;6.10;2.77;;;22.40;71.20;;;23.43;51.26;101518.88;3076405;46;20471;-80
2023/10/09 09:35:01;;;;;;;4.50;2.83;;;22.50;71.20;;;23.52;50.86;101517.41;3076964;46;20667;-81
2023/10/09 09:37:34;;;;;;;4.67;2.80;;;22.50;71.00;;;23.61;50.54;101526.72;3076396;46;20443;-79
2023/10/09 09:40:29;;;;;;;3.43;2.37;;;22.60;71.00;;;23.68;50.36;101532.75;3077747;46;20454;-78
2023/10/09 09:43:09;;;;;;;3.17;2.53;;;22.60;70.80;;;23.77;50.68;101527.81;3076621;46;20573;-78
2023/10/09 09:45:46;;;;;;;3.03;2.63;;;22.70;70.70;;;23.84;50.17;101526.63;3076638;46;20464;-79
2023/10/09 09:48:16;;;;;;;2.93;2.20;;;22.80;70.50;;;23.90;50.05;101528.31;3075467;46;20557;-78
2023/10/09 09:50:46;;;;;;;3.53;2.23;;;22.80;70.30;;;23.96;50.05;101530.03;3076440;46;21136;-78
2023/10/09 09:53:18;;;;;;;2.83;2.53;;;22.90;70.20;;;24.02;49.76;101531.75;3075848;46;20501;-78
2023/10/09 09:55:59;;;;;;;3.60;2.53;;;22.90;70.00;;;24.05;49.61;101528.59;3076592;46;20459;-79
2023/10/09 09:58:32;;;;;;;2.83;2.27;;;23.00;69.80;;;24.11;49.86;101535.72;3075570;46;20511;-83
2023/10/09 10:01:16;;;;;;;4.23;2.40;;;23.00;69.80;;;24.15;49.35;101534.16;3075294;46;20535;-79
2023/10/09 10:03:58;;;;;;;3.90;2.30;;;23.10;69.50;;;24.17;49.16;101531.22;3075467;46;20439;-80
2023/10/09 10:06:32;;;;;;;3.30;2.57;;;23.10;69.30;;;24.23;49.41;101532.94;3074956;46;21468;-80
2023/10/09 10:09:00;;;;;;;4.50;2.73;;;23.20;69.20;;;24.27;49.53;101533.28;3076090;46;21044;-81
2023/10/09 10:11:52;;;;;;;5.53;2.70;;;23.20;69.00;;;24.27;49.07;101527.88;3076271;46;20443;-81
2023/10/09 10:14:31;;;;;;;4.03;2.37;;;23.30;68.80;;;24.33;49.07;101532.28;3076304;46;20529;-81
2023/10/09 10:17:21;;;;;;;3.83;2.77;;;23.30;68.80;;;24.35;49.04;101532.84;3075963;46;20519;-81
2023/10/09 10:22:47;;;;;;;5.67;2.43;;;23.40;68.50;;;24.41;48.49;101542.63;3075560;46;20475;-82
2023/10/09 10:25:35;;;;;;;3.63;2.30;;;23.40;68.30;;;24.41;48.70;101537.25;3075473;46;20537;-82
2023/10/09 10:28:38;;;;;;;3.60;2.30;;;23.40;68.10;;;24.43;48.52;101548.59;3075978;46;20447;-82
2023/10/09 10:31:09;;;;;;;4.57;2.13;;;23.50;68.10;;;24.48;48.50;101548.66;3071688;46;20444;-81
2023/10/09 10:33:55;;;;;;;8.00;2.60;;;23.50;68.20;;;24.45;48.64;101539.22;3077799;46;21126;-81
2023/10/09 10:36:29;;;;;;;6.60;2.33;;;23.50;67.80;;;24.48;48.66;101551.38;3078583;46;20427;-82
2023/10/09 10:41:59;;;;;;;2.40;2.07;;;23.60;67.90;;;24.48;48.18;101548.66;3079094;46;20454;-82
2023/10/09 10:44:36;;;;;;;2.77;2.30;;;23.60;67.80;;;24.50;48.22;101551.94;3079688;46;20460;-80
2023/10/09 10:47:22;;;;;;;3.40;2.13;;;23.60;67.90;;;24.50;48.68;101552.75;3079219;46;20435;-80
2023/10/09 10:50:07;;;;;;;3.60;2.10;;;23.60;68.00;;;24.52;48.67;101555.19;3079201;46;20481;-80
2023/10/09 10:52:41;;;;;;;4.17;2.47;;;23.60;67.70;;;24.52;48.55;101555.19;3078879;46;21024;-79
2023/10/09 10:55:48;;;;;;;2.87;2.20;;;23.60;67.60;;;24.53;48.74;101556.81;3079597;46;20475;-79
2023/10/09 10:58:23;;;;;;;3.70;2.33;;;23.60;67.50;;;24.53;48.54;101554.13;3079412;46;20431;-80
2023/10/09 11:03:29;;;;;;;2.43;1.90;;;23.60;67.50;;;24.58;48.16;101560.38;3079407;46;20440;-79
2023/10/09 11:06:13;;;;;;;3.67;2.37;;;23.60;67.40;;;24.60;47.89;101561.00;3079317;46;20431;-79
2023/10/09 11:08:54;;;;;;;3.20;1.90;;;23.60;67.30;;;24.62;48.18;101555.34;3079309;46;20509;-78
2023/10/09 11:11:23;;;;;;;2.50;2.17;;;23.70;67.30;;;24.64;47.91;101558.59;3079134;46;20452;-78
2023/10/09 11:13:58;;;;;;;6.10;2.43;;;23.70;67.30;;;24.64;48.15;101556.72;3080127;46;20448;-80
2023/10/09 11:16:41;;;;;;;3.13;2.13;;;23.70;67.20;;;24.66;48.08;101561.84;3079296;46;20423;-81
2023/10/09 11:19:22;;;;;;;3.50;2.20;;;23.70;67.20;;;24.67;48.27;101566.19;3078750;46;20469;-80
2023/10/09 11:21:58;;;;;;;2.57;2.23;;;23.70;67.20;;;24.69;48.14;101555.97;3079200;46;20541;-80
2023/10/09 11:24:33;;;;;;;4.47;2.40;;;23.70;67.00;;;24.70;48.00;101562.97;3079262;46;20557;-80
2023/10/09 11:27:05;;;;;;;2.03;1.80;;;23.70;66.90;;;24.72;47.96;101567.06;3079224;46;20423;-79
2023/10/09 11:32:22;;;;;;;3.03;2.00;;;23.80;67.10;;;24.74;47.53;101553.38;3077331;46;20512;-79
2023/10/09 11:35:10;;;;;;;2.77;2.10;;;23.80;67.00;;;24.76;47.98;101545.84;3078833;46;21075;-80
2023/10/09 11:37:39;;;;;;;2.40;2.07;;;23.80;66.90;;;24.78;47.90;101538.38;3076988;46;20485;-80
2023/10/09 11:40:32;;;;;;;3.10;1.93;;;23.80;66.80;;;24.78;47.91;101538.38;3078007;46;20443;-80
2023/10/09 11:43:03;;;;;;;2.83;2.23;;;23.80;66.90;;;24.84;47.45;101537.38;3078730;46;20432;-81
2023/10/09 11:45:37;;;;;;;2.43;2.23;;;23.80;66.70;;;24.87;47.34;101542.25;3077041;46;20596;-81
2023/10/09 11:48:31;;;;;;;2.13;1.73;;;23.80;66.60;;;24.85;47.74;101536.31;3078449;46;20447;-81
2023/10/09 11:53:43;;;;;;;2.33;2.13;;;23.90;66.50;;;24.89;47.43;101542.81;3078646;46;20427;-81
2023/10/09 11:56:16;;;;;;;2.67;2.00;;;24.00;66.50;;;24.91;47.32;101539.88;3078019;46;20482;-81
2023/10/09 11:58:50;;;;;;;1.83;1.73;;;24.00;66.50;;;24.92;47.22;101550.41;3077813;46;20508;-80
2023/10/09 12:01:23;;;;;;;3.03;2.03;;;24.00;66.50;;;24.94;47.59;101553.66;3076821;46;20506;-80
2023/10/09 12:03:52;;;;;;;2.13;1.90;;;24.00;66.60;;;24.95;47.19;101559.88;3078565;46;20455;-80
2023/10/09 12:06:29;;;;;;;2.23;2.03;;;24.00;66.30;;;24.94;47.17;101553.66;3078772;46;21064;-80
2023/10/09 12:08:58;;;;;;;3.43;1.90;;;24.00;66.20;;;24.96;47.47;101553.44;3078380;46;20465;-81
2023/10/09 12:11:31;;;;;;;2.53;2.00;;;24.00;66.20;;;24.97;47.35;101558.56;3079879;46;20556;-81
2023/10/09 12:14:00;;;;;;;2.50;2.30;;;24.00;66.20;;;24.97;47.06;101555.88;3081505;46;20426;-81
2023/10/09 12:16:29;;;;;;;2.00;1.80;;;24.00;66.20;;;24.98;46.69;101551.28;3080775;46;20475;-80
2023/10/09 12:18:59;;;;;;;2.30;2.10;;;24.00;66.30;;;24.98;47.10;101554.00;3081038;46;20423;-79
2023/10/09 12:21:28;;;;;;;2.27;2.07;;;24.00;66.10;;;24.98;46.82;101557.50;3080715;46;21028;-83
2023/10/09 12:23:59;;;;;;;2.40;1.70;;;24.00;66.00;;;24.99;47.17;101561.00;3080268;46;20422;-81
2023/10/09 12:26:40;;;;;;;4.23;2.00;;;24.00;66.10;;;24.99;47.27;101556.41;3080748;46;20463;-80
2023/10/09 12:29:10;;;;;;;3.63;1.97;;;24.00;66.00;;;25.00;47.44;101562.63;3080542;46;20605;-81
2023/10/09 12:31:39;;;;;;;3.20;2.23;;;24.00;66.00;;;25.01;47.00;101565.06;3080904;46;20463;-84
2023/10/09 12:34:08;;;;;;;2.13;1.93;;;24.00;65.90;;;25.01;46.92;101565.06;3080640;46;20454;-82
2023/10/09 12:36:37;;;;;;;2.30;2.10;;;24.00;66.70;;;25.06;47.01;101562.44;3081093;46;20528;-81
2023/10/09 12:39:05;;;;;;;2.70;2.03;;;24.10;66.70;;;25.09;47.23;101559.25;3081603;46;20510;-79
2023/10/09 12:41:41;;;;;;;2.53;2.20;;;24.10;65.80;;;25.11;46.49;101562.50;3081908;46;20451;-80
2023/10/09 12:44:18;;;;;;;3.13;2.23;;;24.10;65.70;;;25.14;46.36;101556.63;3081926;46;20444;-81
2023/10/09 12:46:53;;;;;;;2.10;1.90;;;24.10;65.70;;;25.16;46.35;101557.19;3081692;46;20576;-81
2023/10/09 12:49:25;;;;;;;2.07;1.87;;;24.10;65.60;;;25.17;46.61;101549.94;3081259;46;21123;-81
2023/10/09 12:51:54;;;;;;;3.17;2.00;;;24.10;65.60;;;25.15;46.44;101554.75;3081681;46;20451;-80
2023/10/09 12:54:27;;;;;;;3.87;2.17;;;24.10;65.60;;;25.14;46.48;101548.53;3080902;46;20480;-81
2023/10/09 12:56:57;;;;;;;1.93;1.80;;;24.00;65.50;;;25.13;46.40;101557.69;3081049;46;20423;-81
2023/10/09 12:59:26;;;;;;;2.23;2.03;;;24.00;65.50;;;25.13;46.21;101556.84;3081169;46;20435;-81
2023/10/09 13:01:57;;;;;;;2.43;2.10;;;24.00;65.60;;;25.12;46.37;101566.03;3081586;46;20423;-81
2023/10/09 13:04:31;;;;;;;5.53;2.03;;;24.00;65.60;;;25.10;46.58;101558.22;3081720;46;20472;-81
2023/10/09 13:07:04;;;;;;;2.43;1.80;;;24.00;65.70;;;25.08;46.37;101563.00;3081535;46;20526;-81
2023/10/09 13:09:35;;;;;;;2.50;1.73;;;23.90;65.60;;;25.06;46.39;101561.63;3081139;46;20443;-81
2023/10/09 13:12:04;;;;;;;3.30;2.17;;;23.90;65.70;;;25.02;46.67;101555.94;3080610;46;20423;-83
2023/10/09 13:14:34;;;;;;;3.07;2.20;;;23.90;65.80;;;25.02;46.96;101561.31;3080770;46;21962;-82